createdAt,value
2022-11-05T00:01:14.940Z,9.75
2022-11-05T00:04:04.340Z,9.76
2022-11-05T00:06:50.412Z,9.70
2022-11-05T00:09:33.987Z,9.65
2022-11-05T00:12:24.012Z,9.65
2022-11-05T00:15:11.314Z,9.67
2022-11-05T00:17:39.968Z,9.80
2022-11-05T00:20:15.354Z,9.79
2022-11-05T00:23:00.729Z,9.81
2022-11-05T00:25:31.351Z,9.76
2022-11-05T00:28:04.559Z,9.75
2022-11-05T00:30:33.201Z,9.83
2022-11-05T00:33:05.710Z,9.80
2022-11-05T00:35:38.435Z,9.78
2022-11-05T00:38:07.167Z,9.78
2022-11-05T00:40:36.022Z,9.78
2022-11-05T00:43:28.078Z,9.78
2022-11-05T00:45:57.251Z,9.79
2022-11-05T00:48:43.486Z,9.66
2022-11-05T00:51:20.428Z,9.58
2022-11-05T00:53:48.905Z,9.55
2022-11-05T00:56:26.352Z,9.51
2022-11-05T00:58:55.025Z,9.49
2022-11-05T01:01:24.558Z,9.42
2022-11-05T01:03:54.882Z,9.43
2022-11-05T01:06:26.047Z,9.36
2022-11-05T01:08:54.657Z,9.32
2022-11-05T01:11:35.002Z,9.30
2022-11-05T01:14:05.806Z,9.31
2022-11-05T01:16:36.107Z,9.29
2022-11-05T01:19:08.637Z,9.33
2022-11-05T01:21:39.378Z,9.30
2022-11-05T01:24:10.654Z,9.29
2022-11-05T01:26:40.476Z,9.29
2022-11-05T01:29:09.914Z,9.31
2022-11-05T01:31:39.740Z,9.29
2022-11-05T01:34:09.166Z,9.32
2022-11-05T01:36:43.211Z,9.33
2022-11-05T01:39:16.038Z,9.34
2022-11-05T01:41:47.981Z,9.40
2022-11-05T01:44:55.748Z,9.41
2022-11-05T01:47:34.633Z,9.38
2022-11-05T01:50:08.859Z,9.35
2022-11-05T01:52:39.690Z,9.38
2022-11-05T01:55:11.256Z,9.35
2022-11-05T01:57:45.156Z,9.38
2022-11-05T02:00:22.776Z,9.39
2022-11-05T02:02:52.926Z,9.42
2022-11-05T02:05:23.180Z,9.47
2022-11-05T02:07:54.606Z,9.53
2022-11-05T02:10:26.033Z,9.64
2022-11-05T02:13:01.477Z,9.63
2022-11-05T02:15:44.196Z,9.65
2022-11-05T02:18:26.657Z,9.70
2022-11-05T02:21:08.175Z,9.66
2022-11-05T02:24:05.282Z,9.67
2022-11-05T02:27:08.546Z,9.63
2022-11-05T02:30:14.978Z,9.59
2022-11-05T02:33:10.483Z,9.55
2022-11-05T02:35:55.301Z,9.56
2022-11-05T02:38:38.199Z,9.60
2022-11-05T02:41:15.505Z,9.55
2022-11-05T02:43:56.905Z,9.53
2022-11-05T02:46:42.464Z,9.51
2022-11-05T02:49:27.902Z,9.48
2022-11-05T02:52:02.978Z,9.47
2022-11-05T02:54:38.156Z,9.43
2022-11-05T02:57:08.059Z,9.41
2022-11-05T02:59:38.770Z,9.41
2022-11-05T03:02:12.499Z,9.43
2022-11-05T03:04:41.408Z,9.43
2022-11-05T03:07:39.972Z,9.46
2022-11-05T03:10:34.620Z,9.49
2022-11-05T03:13:12.990Z,9.51
2022-11-05T03:15:52.675Z,9.55
2022-11-05T03:18:27.999Z,9.56
2022-11-05T03:21:08.766Z,9.59
2022-11-05T03:23:49.813Z,9.58
2022-11-05T03:26:25.186Z,9.53
2022-11-05T03:28:58.113Z,9.57
2022-11-05T03:31:28.672Z,9.55
2022-11-05T03:34:00.482Z,9.57
2022-11-05T03:36:33.832Z,9.55
2022-11-05T03:39:09.811Z,9.48
2022-11-05T03:41:49.931Z,9.45
2022-11-05T03:44:27.041Z,9.40
2022-11-05T03:47:04.072Z,9.39
2022-11-05T03:49:37.199Z,9.43
2022-11-05T03:52:13.071Z,9.42
2022-11-05T03:54:45.101Z,9.39
2022-11-05T03:57:19.883Z,9.40
2022-11-05T03:59:51.437Z,9.36
2022-11-05T04:02:24.217Z,9.30
2022-11-05T04:04:54.850Z,9.28
2022-11-05T04:07:41.424Z,9.26
2022-11-05T04:10:29.348Z,9.25
2022-11-05T04:13:15.541Z,9.22
2022-11-05T04:15:57.837Z,9.21
2022-11-05T04:18:26.765Z,9.19
2022-11-05T04:21:13.855Z,9.18
2022-11-05T04:24:00.086Z,9.16
2022-11-05T04:26:36.091Z,9.17
2022-11-05T04:29:23.292Z,9.18
2022-11-05T04:31:52.689Z,9.22
2022-11-05T04:34:22.298Z,9.29
2022-11-05T04:36:51.198Z,9.34
2022-11-05T04:39:21.439Z,9.52
2022-11-05T04:41:51.750Z,9.67
2022-11-05T04:44:22.266Z,9.73
2022-11-05T04:46:52.083Z,9.61
2022-11-05T04:49:20.734Z,9.52
2022-11-05T04:51:49.140Z,9.42
2022-11-05T04:54:17.984Z,9.46
2022-11-05T04:56:54.594Z,9.53
2022-11-05T04:59:26.100Z,9.52
2022-11-05T05:01:55.740Z,9.71
2022-11-05T05:04:24.124Z,9.73
2022-11-05T05:06:53.802Z,9.85
2022-11-05T05:09:22.539Z,9.78
2022-11-05T05:11:51.362Z,9.65
2022-11-05T05:14:23.651Z,9.57
2022-11-05T05:16:52.074Z,9.54
2022-11-05T05:19:21.265Z,9.49
2022-11-05T05:21:48.749Z,9.47
2022-11-05T05:24:20.403Z,9.58
2022-11-05T05:26:51.007Z,9.73
2022-11-05T05:29:19.995Z,9.69
2022-11-05T05:31:52.211Z,9.67
2022-11-05T05:34:21.194Z,9.71
2022-11-05T05:36:49.640Z,9.86
2022-11-05T05:39:18.211Z,9.95
2022-11-05T05:41:46.932Z,10.24
2022-11-05T05:44:15.684Z,10.42
2022-11-05T05:46:45.454Z,10.61
2022-11-05T05:49:16.260Z,10.84
2022-11-05T05:51:44.741Z,11.04
2022-11-05T05:54:14.641Z,11.15
2022-11-05T05:56:47.251Z,11.24
2022-11-05T05:59:16.272Z,11.24
2022-11-05T06:01:44.803Z,11.15
2022-11-05T06:04:16.938Z,11.17
2022-11-05T06:06:47.652Z,11.30
2022-11-05T06:09:18.604Z,11.37
2022-11-05T06:11:48.281Z,11.21
2022-11-05T06:14:18.101Z,11.23
2022-11-05T06:16:47.856Z,11.46
2022-11-05T06:19:17.811Z,11.40
2022-11-05T06:21:47.115Z,11.52
2022-11-05T06:24:15.929Z,11.37
2022-11-05T06:26:47.219Z,11.38
2022-11-05T06:29:15.714Z,11.43
2022-11-05T06:31:44.723Z,11.50
2022-11-05T06:34:21.926Z,11.52
2022-11-05T06:36:54.503Z,11.48
2022-11-05T06:39:25.023Z,11.49
2022-11-05T06:44:48.631Z,11.56
2022-11-05T06:47:19.318Z,11.53
2022-11-05T06:49:51.343Z,11.71
2022-11-05T06:52:21.671Z,11.61
2022-11-05T06:54:50.663Z,11.49
2022-11-05T06:57:19.089Z,11.59
2022-11-05T06:59:47.758Z,11.73
2022-11-05T07:02:18.084Z,11.64
2022-11-05T07:04:47.290Z,11.58
2022-11-05T07:07:19.305Z,11.54
2022-11-05T07:09:49.056Z,11.63
2022-11-05T07:12:18.495Z,11.76
2022-11-05T07:14:47.577Z,11.76
2022-11-05T07:17:19.587Z,11.71
2022-11-05T07:19:50.438Z,11.83
2022-11-05T07:22:20.665Z,11.86
2022-11-05T07:24:50.453Z,11.86
2022-11-05T07:27:20.151Z,11.86
2022-11-05T07:29:50.609Z,11.83
2022-11-05T07:32:25.098Z,11.82
2022-11-05T07:34:54.503Z,11.84
2022-11-05T07:37:24.545Z,12.01
2022-11-05T07:39:54.571Z,12.02
2022-11-05T07:42:23.091Z,12.04
2022-11-05T07:44:52.732Z,12.02
2022-11-05T07:47:21.937Z,12.05
2022-11-05T07:49:50.506Z,12.06
2022-11-05T07:52:21.827Z,12.01
2022-11-05T07:54:51.886Z,12.17
2022-11-05T07:57:21.418Z,12.20
2022-11-05T07:59:50.899Z,12.21
2022-11-05T08:02:20.803Z,12.19
2022-11-05T08:04:50.764Z,12.18
2022-11-05T08:07:21.516Z,12.14
2022-11-05T08:09:51.619Z,12.17
2022-11-05T08:12:20.111Z,12.14
2022-11-05T08:14:48.666Z,12.21
2022-11-05T08:17:20.976Z,12.17
2022-11-05T08:19:50.772Z,12.16
2022-11-05T08:22:19.947Z,12.24
2022-11-05T08:24:48.494Z,12.28
2022-11-05T08:27:19.720Z,12.31
2022-11-05T08:29:49.720Z,12.26
2022-11-05T08:32:18.339Z,12.25
2022-11-05T08:34:46.720Z,12.30
2022-11-05T08:37:15.142Z,12.35
2022-11-05T08:39:43.937Z,12.36
2022-11-05T08:42:12.662Z,12.33
2022-11-05T08:44:43.031Z,12.38
2022-11-05T08:47:14.672Z,12.42
2022-11-05T08:49:50.223Z,12.47
2022-11-05T08:52:21.019Z,12.56
2022-11-05T08:54:51.755Z,12.53
2022-11-05T08:57:22.252Z,12.50
2022-11-05T08:59:53.249Z,12.51
2022-11-05T09:02:21.723Z,12.51
2022-11-05T09:04:50.418Z,12.49
2022-11-05T09:07:19.029Z,12.50
2022-11-05T09:09:50.010Z,12.53
2022-11-05T09:12:19.658Z,12.56
2022-11-05T09:14:48.442Z,12.58
2022-11-05T09:17:20.755Z,12.56
2022-11-05T09:19:50.504Z,12.59
2022-11-05T09:22:18.989Z,12.51
2022-11-05T09:24:48.074Z,12.57
2022-11-05T09:27:16.766Z,12.52
2022-11-05T09:29:47.377Z,12.54
2022-11-05T09:32:21.094Z,12.55
2022-11-05T09:34:50.511Z,12.48
2022-11-05T09:37:18.790Z,12.43
2022-11-05T09:39:47.240Z,12.45
2022-11-05T09:42:22.065Z,12.40
2022-11-05T09:44:56.651Z,12.31
2022-11-05T09:47:38.160Z,12.28
2022-11-05T09:50:10.615Z,12.23
2022-11-05T09:52:40.177Z,12.21
2022-11-05T09:55:25.019Z,12.14
2022-11-05T09:58:01.763Z,12.08
2022-11-05T10:00:33.849Z,12.00
2022-11-05T10:03:08.261Z,11.93
2022-11-05T10:05:40.867Z,11.79
2022-11-05T10:08:17.124Z,11.76
2022-11-05T10:10:50.868Z,11.80
2022-11-05T10:13:29.016Z,12.08
2022-11-05T10:16:03.130Z,12.35
2022-11-05T10:18:37.018Z,12.31
2022-11-05T10:21:07.071Z,12.32
2022-11-05T10:23:36.392Z,12.45
2022-11-05T10:26:07.888Z,12.86
2022-11-05T10:28:38.061Z,13.29
2022-11-05T10:31:10.521Z,13.51
2022-11-05T10:33:46.857Z,13.70
2022-11-05T10:36:21.055Z,13.68
2022-11-05T10:38:49.499Z,13.99
2022-11-05T10:41:47.161Z,14.18
2022-11-05T10:44:28.160Z,14.17
2022-11-05T10:47:08.748Z,13.92
2022-11-05T10:49:51.302Z,13.28
2022-11-05T10:52:24.098Z,12.79
2022-11-05T10:54:55.703Z,12.61
2022-11-05T10:57:36.710Z,12.53
2022-11-05T11:00:28.606Z,12.48
2022-11-05T11:03:00.705Z,12.42
2022-11-05T11:05:34.210Z,12.45
2022-11-05T11:08:23.908Z,13.05
2022-11-05T11:11:07.294Z,13.40
2022-11-05T11:13:52.533Z,13.28
2022-11-05T11:16:25.105Z,12.89
2022-11-05T11:18:56.538Z,12.76
2022-11-05T11:21:26.447Z,12.71
2022-11-05T11:23:59.412Z,12.49
2022-11-05T11:26:31.317Z,12.38
2022-11-05T11:29:03.228Z,12.32
2022-11-05T11:31:35.112Z,12.13
2022-11-05T11:34:17.888Z,12.05
2022-11-05T11:36:52.268Z,11.99
2022-11-05T11:39:26.142Z,12.23
2022-11-05T11:41:59.297Z,12.51
2022-11-05T11:44:31.631Z,12.82
2022-11-05T11:47:06.547Z,13.09
2022-11-05T11:49:46.163Z,13.15
2022-11-05T11:52:20.413Z,13.19
2022-11-05T11:54:49.037Z,13.23
2022-11-05T11:57:27.300Z,13.25
2022-11-05T12:00:14.671Z,13.35
2022-11-05T12:03:02.096Z,13.55
2022-11-05T12:05:42.756Z,13.44
2022-11-05T12:08:26.323Z,13.33
2022-11-05T12:11:05.538Z,13.42
2022-11-05T12:14:00.334Z,13.15
2022-11-05T12:16:58.891Z,13.21
2022-11-05T12:19:44.024Z,13.44
2022-11-05T12:22:31.721Z,13.68
2022-11-05T12:25:29.479Z,13.55
2022-11-05T12:28:12.098Z,13.59
2022-11-05T12:30:54.234Z,13.77
2022-11-05T12:33:41.264Z,13.69
2022-11-05T12:36:32.951Z,13.94
2022-11-05T12:39:37.887Z,13.97
2022-11-05T12:42:17.529Z,13.97
2022-11-05T12:44:56.637Z,13.99
2022-11-05T12:47:43.085Z,14.21
2022-11-05T12:50:22.791Z,14.16
2022-11-05T12:53:16.669Z,13.79
2022-11-05T12:55:59.444Z,13.98
2022-11-05T12:58:34.986Z,13.94
2022-11-05T13:01:09.306Z,13.92
2022-11-05T13:03:43.864Z,13.93
2022-11-05T13:06:16.027Z,13.87
2022-11-05T13:08:52.267Z,14.04
2022-11-05T13:11:38.122Z,14.24
2022-11-05T13:14:15.287Z,14.10
2022-11-05T13:16:51.045Z,14.10
2022-11-05T13:19:25.705Z,14.03
2022-11-05T13:22:01.754Z,14.16
2022-11-05T13:24:36.270Z,14.15
2022-11-05T13:27:17.139Z,14.11
2022-11-05T13:30:00.134Z,13.76
2022-11-05T13:32:41.440Z,13.42
2022-11-05T13:35:19.102Z,13.48
2022-11-05T13:38:08.375Z,13.72
2022-11-05T13:40:46.628Z,14.06
2022-11-05T13:44:04.004Z,14.27
2022-11-05T13:47:13.528Z,14.47
2022-11-05T13:50:11.087Z,14.73
2022-11-05T13:53:00.485Z,14.55
2022-11-05T13:56:12.454Z,14.10
2022-11-05T13:59:20.777Z,14.28
2022-11-05T14:01:55.425Z,14.19
2022-11-05T14:04:38.186Z,14.16
2022-11-05T14:07:16.752Z,14.28
2022-11-05T14:09:56.593Z,14.58
2022-11-05T14:12:30.166Z,14.92
2022-11-05T14:15:05.006Z,15.61
2022-11-05T14:17:36.982Z,15.59
2022-11-05T14:20:27.227Z,14.94
2022-11-05T14:23:16.214Z,15.51
2022-11-05T14:25:56.366Z,16.44
2022-11-05T14:28:47.710Z,15.76
2022-11-05T14:32:07.745Z,16.79
2022-11-05T14:34:45.783Z,14.71
2022-11-05T14:37:41.795Z,14.94
2022-11-05T14:40:36.403Z,14.66
2022-11-05T14:43:09.824Z,14.51
2022-11-05T14:45:41.117Z,15.38
2022-11-05T14:48:28.404Z,16.45
2022-11-05T14:50:57.487Z,17.15
2022-11-05T14:53:33.869Z,17.16
2022-11-05T14:56:06.850Z,17.28
2022-11-05T14:58:39.113Z,16.80
2022-11-05T15:01:09.572Z,15.10
2022-11-05T15:04:03.804Z,14.38
2022-11-05T15:06:37.801Z,14.22
2022-11-05T15:09:25.973Z,14.89
2022-11-05T15:12:09.196Z,15.81
2022-11-05T15:14:43.084Z,16.12
2022-11-05T15:17:20.051Z,16.64
2022-11-05T15:19:49.733Z,16.60
2022-11-05T15:22:31.271Z,17.31
2022-11-05T15:25:02.446Z,17.69
2022-11-05T15:27:48.478Z,17.67
2022-11-05T15:30:19.101Z,17.01
2022-11-05T15:32:47.899Z,15.96
2022-11-05T15:35:22.521Z,14.83
2022-11-05T15:37:57.326Z,14.37
2022-11-05T15:40:32.496Z,13.80
2022-11-05T15:43:20.070Z,13.66
2022-11-05T15:46:09.458Z,13.43
2022-11-05T15:48:38.507Z,13.24
2022-11-05T15:51:08.058Z,13.19
2022-11-05T15:56:51.458Z,13.14
2022-11-05T15:59:24.137Z,12.95
2022-11-05T16:01:57.374Z,12.90
2022-11-05T16:04:29.160Z,12.86
2022-11-05T16:07:00.726Z,12.72
2022-11-05T16:09:32.031Z,12.60
2022-11-05T16:12:29.681Z,12.52
2022-11-05T16:15:04.758Z,12.42
2022-11-05T16:17:47.217Z,12.36
2022-11-05T16:20:32.640Z,12.30
2022-11-05T16:23:02.756Z,12.20
2022-11-05T16:25:39.001Z,12.21
2022-11-05T16:28:23.823Z,12.09
2022-11-05T16:31:01.059Z,12.03
2022-11-05T16:33:41.513Z,11.91
2022-11-05T16:36:10.571Z,11.81
2022-11-05T16:38:39.524Z,11.79
2022-11-05T16:41:08.382Z,11.68
2022-11-05T16:43:38.366Z,11.56
2022-11-05T16:46:07.485Z,11.49
2022-11-05T16:48:35.800Z,11.40
2022-11-05T16:51:04.427Z,11.37
2022-11-05T16:53:32.999Z,11.31
2022-11-05T16:56:01.477Z,11.29
2022-11-05T16:58:30.695Z,11.27
2022-11-05T17:01:04.185Z,11.22
2022-11-05T17:03:32.815Z,11.12
2022-11-05T17:06:01.889Z,11.15
2022-11-05T17:08:31.897Z,11.07
2022-11-05T17:11:01.840Z,10.94
2022-11-05T17:13:30.898Z,10.89
2022-11-05T17:16:01.845Z,10.82
2022-11-05T17:18:30.913Z,10.76
2022-11-05T17:20:59.876Z,10.73
2022-11-05T17:23:28.928Z,10.74
2022-11-05T17:26:01.727Z,10.69
2022-11-05T17:28:30.639Z,10.64
2022-11-05T17:31:03.110Z,10.62
2022-11-05T17:33:32.076Z,10.50
2022-11-05T17:36:00.978Z,10.48
2022-11-05T17:38:30.758Z,10.38
2022-11-05T17:40:59.486Z,10.33
2022-11-05T17:43:28.374Z,10.33
2022-11-05T17:46:03.104Z,10.30
2022-11-05T17:48:34.569Z,10.27
2022-11-05T17:51:03.728Z,10.31
2022-11-05T17:53:32.385Z,10.23
2022-11-05T17:56:00.844Z,10.16
2022-11-05T17:58:30.653Z,10.18
2022-11-05T18:01:00.028Z,10.09
2022-11-05T18:03:28.739Z,10.10
2022-11-05T18:06:04.889Z,10.09
2022-11-05T18:08:34.634Z,10.06
2022-11-05T18:11:03.274Z,10.03
2022-11-05T18:13:31.722Z,10.00
2022-11-05T18:16:00.067Z,9.98
2022-11-05T18:18:28.824Z,9.96
2022-11-05T18:20:59.356Z,9.95
2022-11-05T18:23:29.500Z,9.89
2022-11-05T18:25:58.915Z,9.87
2022-11-05T18:28:30.235Z,9.85
2022-11-05T18:30:58.725Z,9.88
2022-11-05T18:33:27.114Z,9.81
2022-11-05T18:35:56.098Z,9.80
2022-11-05T18:38:24.758Z,9.82
2022-11-05T18:40:55.021Z,9.79
2022-11-05T18:43:23.317Z,9.73
2022-11-05T18:45:56.949Z,9.74
2022-11-05T18:48:25.251Z,9.74
2022-11-05T18:50:57.700Z,9.75
2022-11-05T18:53:29.384Z,9.78
2022-11-05T18:55:59.250Z,9.72
2022-11-05T18:58:28.904Z,9.70
2022-11-05T19:01:00.211Z,9.70
2022-11-05T19:03:33.689Z,9.73
2022-11-05T19:06:04.677Z,9.73
2022-11-05T19:08:34.229Z,9.76
2022-11-05T19:11:09.954Z,9.75
2022-11-05T19:13:39.285Z,9.80
2022-11-05T19:16:09.799Z,9.79
2022-11-05T19:18:38.996Z,9.80
2022-11-05T19:21:09.782Z,9.83
2022-11-05T19:23:39.496Z,9.82
2022-11-05T19:26:12.710Z,9.81
2022-11-05T19:28:41.791Z,9.75
2022-11-05T19:31:15.250Z,9.66
2022-11-05T19:33:44.101Z,9.67
2022-11-05T19:36:14.825Z,9.64
2022-11-05T19:38:43.929Z,9.61
2022-11-05T19:41:16.465Z,9.63
2022-11-05T19:43:45.475Z,9.70
2022-11-05T19:46:17.785Z,9.74
2022-11-05T19:48:47.325Z,9.79
2022-11-05T19:51:18.592Z,9.82
2022-11-05T19:53:47.082Z,9.76
2022-11-05T19:56:19.108Z,9.79
2022-11-05T19:58:47.517Z,9.84
2022-11-05T20:01:17.887Z,9.86
2022-11-05T20:03:47.946Z,9.85
2022-11-05T20:06:19.784Z,9.87
2022-11-05T20:09:15.319Z,9.88
2022-11-05T20:11:40.265Z,9.86
2022-11-05T20:14:10.854Z,9.97
2022-11-05T20:16:40.568Z,10.01
2022-11-05T20:19:11.249Z,10.18
2022-11-05T20:21:40.176Z,10.31
2022-11-05T20:24:09.882Z,10.38
2022-11-05T20:26:41.586Z,10.53
2022-11-05T20:29:09.927Z,10.70
2022-11-05T20:31:38.385Z,10.91
2022-11-05T20:34:07.101Z,10.93
2022-11-05T20:36:36.730Z,10.95
2022-11-05T20:39:05.946Z,10.96
2022-11-05T20:41:34.629Z,10.94
2022-11-05T20:44:05.077Z,11.00
2022-11-05T20:46:33.980Z,10.98
2022-11-05T20:49:02.598Z,11.12
2022-11-05T20:51:31.328Z,11.14
2022-11-05T20:54:01.824Z,11.12
2022-11-05T20:56:34.941Z,11.10
2022-11-05T20:59:06.150Z,11.14
2022-11-05T21:01:36.088Z,11.10
2022-11-05T21:04:05.764Z,11.12
2022-11-05T21:06:36.119Z,11.02
2022-11-05T21:09:06.209Z,10.98
2022-11-05T21:11:54.632Z,11.03
2022-11-05T21:14:24.895Z,11.02
2022-11-05T21:16:53.568Z,10.99
2022-11-05T21:19:24.409Z,10.94
2022-11-05T21:21:52.816Z,10.93
2022-11-05T21:24:21.152Z,10.98
2022-11-05T21:26:50.713Z,10.96
2022-11-05T21:29:20.215Z,11.04
2022-11-05T21:31:50.898Z,11.00
2022-11-05T21:34:20.430Z,10.96
2022-11-05T21:36:50.452Z,10.98
2022-11-05T21:39:19.669Z,10.92
2022-11-05T21:41:48.281Z,10.91
2022-11-05T21:44:16.709Z,10.87
2022-11-05T21:46:45.216Z,10.89
2022-11-05T21:49:15.662Z,10.81
2022-11-05T21:52:01.635Z,10.90
2022-11-05T21:54:47.124Z,10.84
2022-11-05T21:57:35.153Z,10.81
2022-11-05T22:00:06.005Z,10.75
2022-11-05T22:02:34.543Z,10.84
2022-11-05T22:05:06.707Z,10.87
2022-11-05T22:07:37.734Z,10.95
2022-11-05T22:10:13.288Z,10.94
2022-11-05T22:12:44.395Z,10.94
2022-11-05T22:15:13.399Z,11.01
2022-11-05T22:17:46.990Z,10.97
2022-11-05T22:20:19.272Z,10.98
2022-11-05T22:22:47.936Z,11.01
2022-11-05T22:25:16.971Z,10.90
2022-11-05T22:27:45.883Z,10.96
2022-11-05T22:30:16.003Z,11.01
2022-11-05T22:32:44.716Z,11.11
2022-11-05T22:35:14.504Z,11.21
2022-11-05T22:37:44.303Z,11.13
2022-11-05T22:40:13.070Z,11.18
2022-11-05T22:42:41.837Z,11.21
2022-11-05T22:45:11.545Z,11.24
2022-11-05T22:47:43.124Z,11.30
2022-11-05T22:50:16.926Z,11.28
2022-11-05T22:52:48.203Z,11.32
2022-11-05T22:55:17.215Z,11.25
2022-11-05T22:57:46.040Z,11.26
2022-11-05T23:00:18.544Z,11.28
2022-11-05T23:02:48.619Z,11.26
2022-11-05T23:05:17.320Z,11.26
2022-11-05T23:08:04.979Z,11.26
2022-11-05T23:10:50.567Z,11.28
2022-11-05T23:13:20.082Z,11.31
2022-11-05T23:16:06.221Z,11.32
2022-11-05T23:18:52.729Z,11.32
2022-11-05T23:21:38.749Z,11.34
2022-11-05T23:24:08.973Z,11.27
2022-11-05T23:26:51.439Z,11.22
2022-11-05T23:29:22.762Z,11.29
2022-11-05T23:32:09.447Z,11.13
2022-11-05T23:34:39.120Z,11.13
2022-11-05T23:37:25.248Z,11.19
2022-11-05T23:40:02.649Z,11.07
2022-11-05T23:42:54.916Z,11.00
2022-11-05T23:45:42.847Z,10.96
2022-11-05T23:48:19.388Z,10.84
2022-11-05T23:50:51.742Z,10.78
2022-11-05T23:53:22.289Z,10.79
2022-11-05T23:55:52.971Z,10.78
2022-11-05T23:58:30.064Z,10.72
